sensor_id;sensor_type;location;lat;lon;timestamp;temperature;humidity
47546;DHT22;50104;52.002;4.688;2023-04-15T00:03:43;10.90;66.40
47546;DHT22;50104;52.002;4.688;2023-04-15T00:08:44;10.90;66.40
47546;DHT22;50104;52.002;4.688;2023-04-15T00:13:45;10.80;66.50
47546;DHT22;50104;52.002;4.688;2023-04-15T00:18:46;10.80;66.50
47546;DHT22;50104;52.002;4.688;2023-04-15T00:23:47;10.70;66.50
47546;DHT22;50104;52.002;4.688;2023-04-15T00:28:51;10.60;66.60
47546;DHT22;50104;52.002;4.688;2023-04-15T00:33:53;10.60;66.60
47546;DHT22;50104;52.002;4.688;2023-04-15T00:38:53;10.50;66.70
47546;DHT22;50104;52.002;4.688;2023-04-15T00:43:54;10.50;66.70
47546;DHT22;50104;52.002;4.688;2023-04-15T00:48:55;10.40;66.90
47546;DHT22;50104;52.002;4.688;2023-04-15T00:53:56;10.30;66.80
47546;DHT22;50104;52.002;4.688;2023-04-15T00:58:58;10.30;67.00
47546;DHT22;50104;52.002;4.688;2023-04-15T01:03:58;10.20;66.90
47546;DHT22;50104;52.002;4.688;2023-04-15T01:08:59;10.20;67.10
47546;DHT22;50104;52.002;4.688;2023-04-15T01:14:00;10.10;67.20
47546;DHT22;50104;52.002;4.688;2023-04-15T01:19:02;10.10;67.20
47546;DHT22;50104;52.002;4.688;2023-04-15T01:24:09;10.00;67.50
47546;DHT22;50104;52.002;4.688;2023-04-15T01:29:10;10.00;67.40
47546;DHT22;50104;52.002;4.688;2023-04-15T01:34:11;9.90;67.40
47546;DHT22;50104;52.002;4.688;2023-04-15T01:39:13;9.90;67.50
47546;DHT22;50104;52.002;4.688;2023-04-15T01:44:14;9.80;67.70
47546;DHT22;50104;52.002;4.688;2023-04-15T01:49:15;9.80;67.70
47546;DHT22;50104;52.002;4.688;2023-04-15T01:54:16;9.70;68.00
47546;DHT22;50104;52.002;4.688;2023-04-15T01:59:17;9.70;68.10
47546;DHT22;50104;52.002;4.688;2023-04-15T02:04:18;9.70;68.00
47546;DHT22;50104;52.002;4.688;2023-04-15T02:09:19;9.60;67.90
47546;DHT22;50104;52.002;4.688;2023-04-15T02:14:20;9.50;68.00
47546;DHT22;50104;52.002;4.688;2023-04-15T02:19:20;9.50;67.90
47546;DHT22;50104;52.002;4.688;2023-04-15T02:24:21;9.40;67.90
47546;DHT22;50104;52.002;4.688;2023-04-15T02:29:22;9.30;68.00
47546;DHT22;50104;52.002;4.688;2023-04-15T02:34:23;9.30;68.10
47546;DHT22;50104;52.002;4.688;2023-04-15T02:39:23;9.20;68.40
47546;DHT22;50104;52.002;4.688;2023-04-15T02:44:24;9.20;68.80
47546;DHT22;50104;52.002;4.688;2023-04-15T02:49:25;9.10;68.90
47546;DHT22;50104;52.002;4.688;2023-04-15T02:54:29;9.00;69.10
47546;DHT22;50104;52.002;4.688;2023-04-15T02:59:30;9.00;69.40
47546;DHT22;50104;52.002;4.688;2023-04-15T03:04:31;9.00;69.30
47546;DHT22;50104;52.002;4.688;2023-04-15T03:09:31;8.90;69.30
47546;DHT22;50104;52.002;4.688;2023-04-15T03:14:32;8.90;69.30
47546;DHT22;50104;52.002;4.688;2023-04-15T03:19:33;8.80;69.40
47546;DHT22;50104;52.002;4.688;2023-04-15T03:24:34;8.80;69.60
47546;DHT22;50104;52.002;4.688;2023-04-15T03:29:34;8.80;69.60
47546;DHT22;50104;52.002;4.688;2023-04-15T03:34:35;8.70;69.80
47546;DHT22;50104;52.002;4.688;2023-04-15T03:39:36;8.70;70.00
47546;DHT22;50104;52.002;4.688;2023-04-15T03:44:37;8.70;70.10
47546;DHT22;50104;52.002;4.688;2023-04-15T03:49:37;8.60;70.20
47546;DHT22;50104;52.002;4.688;2023-04-15T03:54:38;8.60;70.10
47546;DHT22;50104;52.002;4.688;2023-04-15T03:59:39;8.50;70.10
47546;DHT22;50104;52.002;4.688;2023-04-15T04:04:40;8.50;70.30
47546;DHT22;50104;52.002;4.688;2023-04-15T04:09:41;8.40;70.40
47546;DHT22;50104;52.002;4.688;2023-04-15T04:14:42;8.40;70.40
47546;DHT22;50104;52.002;4.688;2023-04-15T04:19:43;8.30;70.60
47546;DHT22;50104;52.002;4.688;2023-04-15T04:24:43;8.30;70.70
47546;DHT22;50104;52.002;4.688;2023-04-15T04:29:44;8.30;71.00
47546;DHT22;50104;52.002;4.688;2023-04-15T04:34:47;8.20;71.00
47546;DHT22;50104;52.002;4.688;2023-04-15T04:39:47;8.20;71.10
47546;DHT22;50104;52.002;4.688;2023-04-15T04:44:48;8.10;71.20
47546;DHT22;50104;52.002;4.688;2023-04-15T04:49:49;8.10;71.20
47546;DHT22;50104;52.002;4.688;2023-04-15T04:54:50;8.00;71.20
47546;DHT22;50104;52.002;4.688;2023-04-15T04:59:51;8.00;71.20
47546;DHT22;50104;52.002;4.688;2023-04-15T05:04:51;7.90;71.40
47546;DHT22;50104;52.002;4.688;2023-04-15T05:09:53;7.90;71.50
47546;DHT22;50104;52.002;4.688;2023-04-15T05:14:54;7.80;71.60
47546;DHT22;50104;52.002;4.688;2023-04-15T05:19:55;7.80;71.80
47546;DHT22;50104;52.002;4.688;2023-04-15T05:24:56;7.80;71.70
47546;DHT22;50104;52.002;4.688;2023-04-15T05:29:56;7.70;71.80
47546;DHT22;50104;52.002;4.688;2023-04-15T05:34:57;7.70;72.00
47546;DHT22;50104;52.002;4.688;2023-04-15T05:39:58;7.70;72.20
47546;DHT22;50104;52.002;4.688;2023-04-15T05:44:58;7.60;72.30
47546;DHT22;50104;52.002;4.688;2023-04-15T05:49:59;7.60;72.50
47546;DHT22;50104;52.002;4.688;2023-04-15T05:55:00;7.60;72.60
47546;DHT22;50104;52.002;4.688;2023-04-15T06:00:01;7.60;72.70
47546;DHT22;50104;52.002;4.688;2023-04-15T06:05:02;7.60;72.80
47546;DHT22;50104;52.002;4.688;2023-04-15T06:10:04;7.60;72.90
47546;DHT22;50104;52.002;4.688;2023-04-15T06:15:05;7.60;73.00
47546;DHT22;50104;52.002;4.688;2023-04-15T06:20:07;7.60;73.10
47546;DHT22;50104;52.002;4.688;2023-04-15T06:25:08;7.70;73.30
47546;DHT22;50104;52.002;4.688;2023-04-15T06:30:09;7.70;73.60
47546;DHT22;50104;52.002;4.688;2023-04-15T06:35:10;7.70;73.60
47546;DHT22;50104;52.002;4.688;2023-04-15T06:40:11;7.80;73.80
47546;DHT22;50104;52.002;4.688;2023-04-15T06:45:12;7.80;74.20
47546;DHT22;50104;52.002;4.688;2023-04-15T06:50:13;7.90;74.60
47546;DHT22;50104;52.002;4.688;2023-04-15T06:55:14;8.00;75.10
47546;DHT22;50104;52.002;4.688;2023-04-15T07:00:15;8.20;75.80
47546;DHT22;50104;52.002;4.688;2023-04-15T07:05:17;8.40;76.50
47546;DHT22;50104;52.002;4.688;2023-04-15T07:10:18;8.80;76.90
47546;DHT22;50104;52.002;4.688;2023-04-15T07:15:19;9.20;76.90
47546;DHT22;50104;52.002;4.688;2023-04-15T07:20:20;9.60;76.50
47546;DHT22;50104;52.002;4.688;2023-04-15T07:25:21;10.00;76.30
47546;DHT22;50104;52.002;4.688;2023-04-15T07:30:22;10.40;75.90
47546;DHT22;50104;52.002;4.688;2023-04-15T07:35:23;10.70;75.20
47546;DHT22;50104;52.002;4.688;2023-04-15T07:40:25;11.00;74.70
47546;DHT22;50104;52.002;4.688;2023-04-15T07:45:26;11.30;74.80
47546;DHT22;50104;52.002;4.688;2023-04-15T07:50:27;11.60;74.00
47546;DHT22;50104;52.002;4.688;2023-04-15T07:55:28;11.90;73.70
47546;DHT22;50104;52.002;4.688;2023-04-15T08:00:30;12.20;73.40
47546;DHT22;50104;52.002;4.688;2023-04-15T08:05:31;12.40;74.00
47546;DHT22;50104;52.002;4.688;2023-04-15T08:10:32;12.60;73.40
47546;DHT22;50104;52.002;4.688;2023-04-15T08:15:33;12.80;73.90
47546;DHT22;50104;52.002;4.688;2023-04-15T08:20:34;13.00;74.10
47546;DHT22;50104;52.002;4.688;2023-04-15T08:25:34;13.20;74.20
47546;DHT22;50104;52.002;4.688;2023-04-15T08:30:35;13.30;74.10
47546;DHT22;50104;52.002;4.688;2023-04-15T08:35:36;13.50;74.10
47546;DHT22;50104;52.002;4.688;2023-04-15T08:40:42;13.60;74.10
47546;DHT22;50104;52.002;4.688;2023-04-15T08:45:44;13.80;74.00
47546;DHT22;50104;52.002;4.688;2023-04-15T08:50:47;13.90;74.00
47546;DHT22;50104;52.002;4.688;2023-04-15T08:55:51;14.10;74.20
47546;DHT22;50104;52.002;4.688;2023-04-15T09:00:52;14.30;73.60
47546;DHT22;50104;52.002;4.688;2023-04-15T09:05:54;14.50;73.20
47546;DHT22;50104;52.002;4.688;2023-04-15T09:10:55;14.60;72.90
47546;DHT22;50104;52.002;4.688;2023-04-15T09:15:56;14.90;72.70
47546;DHT22;50104;52.002;4.688;2023-04-15T09:21:10;15.10;72.40
47546;DHT22;50104;52.002;4.688;2023-04-15T09:26:13;15.30;71.80
47546;DHT22;50104;52.002;4.688;2023-04-15T09:31:18;15.40;71.30
47546;DHT22;50104;52.002;4.688;2023-04-15T09:36:34;15.60;70.80
47546;DHT22;50104;52.002;4.688;2023-04-15T09:41:38;15.80;70.30
47546;DHT22;50104;52.002;4.688;2023-04-15T09:46:43;16.00;69.90
47546;DHT22;50104;52.002;4.688;2023-04-15T09:51:44;16.20;69.50
47546;DHT22;50104;52.002;4.688;2023-04-15T09:56:46;16.40;69.10
47546;DHT22;50104;52.002;4.688;2023-04-15T10:01:48;16.60;68.50
47546;DHT22;50104;52.002;4.688;2023-04-15T10:06:48;16.80;68.50
47546;DHT22;50104;52.002;4.688;2023-04-15T10:11:50;17.00;67.20
47546;DHT22;50104;52.002;4.688;2023-04-15T10:16:52;17.20;66.60
47546;DHT22;50104;52.002;4.688;2023-04-15T10:21:56;17.40;65.90
47546;DHT22;50104;52.002;4.688;2023-04-15T10:26:59;17.60;65.60
47546;DHT22;50104;52.002;4.688;2023-04-15T10:32:00;17.80;64.80
47546;DHT22;50104;52.002;4.688;2023-04-15T10:37:04;17.90;64.40
47546;DHT22;50104;52.002;4.688;2023-04-15T10:42:17;18.10;64.30
47546;DHT22;50104;52.002;4.688;2023-04-15T10:47:20;18.10;64.00
47546;DHT22;50104;52.002;4.688;2023-04-15T10:52:23;18.10;62.90
47546;DHT22;50104;52.002;4.688;2023-04-15T10:57:33;18.20;63.80
47546;DHT22;50104;52.002;4.688;2023-04-15T11:02:56;18.30;62.90
47546;DHT22;50104;52.002;4.688;2023-04-15T11:07:58;18.40;62.80
47546;DHT22;50104;52.002;4.688;2023-04-15T11:13:03;18.50;63.30
47546;DHT22;50104;52.002;4.688;2023-04-15T11:18:13;18.70;63.20
47546;DHT22;50104;52.002;4.688;2023-04-15T11:23:26;19.00;62.70
47546;DHT22;50104;52.002;4.688;2023-04-15T11:28:29;19.20;63.70
47546;DHT22;50104;52.002;4.688;2023-04-15T11:33:31;19.40;63.70
47546;DHT22;50104;52.002;4.688;2023-04-15T11:38:33;19.60;64.00
47546;DHT22;50104;52.002;4.688;2023-04-15T11:43:34;19.80;63.30
47546;DHT22;50104;52.002;4.688;2023-04-15T11:48:35;19.90;62.20
47546;DHT22;50104;52.002;4.688;2023-04-15T11:58:43;20.00;61.20
47546;DHT22;50104;52.002;4.688;2023-04-15T12:03:47;20.10;62.20
47546;DHT22;50104;52.002;4.688;2023-04-15T12:14:14;20.30;61.10
47546;DHT22;50104;52.002;4.688;2023-04-15T12:24:33;20.40;60.70
47546;DHT22;50104;52.002;4.688;2023-04-15T12:29:37;20.40;60.00
47546;DHT22;50104;52.002;4.688;2023-04-15T12:34:41;20.40;59.90
47546;DHT22;50104;52.002;4.688;2023-04-15T12:39:45;20.50;60.00
47546;DHT22;50104;52.002;4.688;2023-04-15T12:44:48;20.50;60.60
47546;DHT22;50104;52.002;4.688;2023-04-15T12:49:48;20.50;59.90
47546;DHT22;50104;52.002;4.688;2023-04-15T12:54:49;20.50;60.30
47546;DHT22;50104;52.002;4.688;2023-04-15T12:59:50;20.50;58.90
47546;DHT22;50104;52.002;4.688;2023-04-15T13:04:51;20.50;58.40
47546;DHT22;50104;52.002;4.688;2023-04-15T13:09:52;20.60;58.30
47546;DHT22;50104;52.002;4.688;2023-04-15T13:14:53;20.70;57.90
47546;DHT22;50104;52.002;4.688;2023-04-15T13:19:53;20.80;57.70
47546;DHT22;50104;52.002;4.688;2023-04-15T13:24:55;20.80;57.90
47546;DHT22;50104;52.002;4.688;2023-04-15T13:29:55;20.90;57.90
47546;DHT22;50104;52.002;4.688;2023-04-15T13:34:56;20.90;58.00
47546;DHT22;50104;52.002;4.688;2023-04-15T13:39:57;20.90;58.50
47546;DHT22;50104;52.002;4.688;2023-04-15T13:44:58;20.90;58.70
47546;DHT22;50104;52.002;4.688;2023-04-15T13:49:58;20.90;58.10
47546;DHT22;50104;52.002;4.688;2023-04-15T13:54:59;20.90;58.70
47546;DHT22;50104;52.002;4.688;2023-04-15T14:00:01;21.00;58.00
47546;DHT22;50104;52.002;4.688;2023-04-15T14:05:04;21.10;58.00
47546;DHT22;50104;52.002;4.688;2023-04-15T14:10:05;21.10;58.40
47546;DHT22;50104;52.002;4.688;2023-04-15T14:15:07;21.20;57.10
47546;DHT22;50104;52.002;4.688;2023-04-15T14:20:08;21.20;58.20
47546;DHT22;50104;52.002;4.688;2023-04-15T14:25:09;21.20;57.40
47546;DHT22;50104;52.002;4.688;2023-04-15T14:30:11;21.20;57.60
47546;DHT22;50104;52.002;4.688;2023-04-15T14:35:12;21.30;56.90
47546;DHT22;50104;52.002;4.688;2023-04-15T14:40:13;21.30;57.10
47546;DHT22;50104;52.002;4.688;2023-04-15T14:45:13;21.30;56.70
47546;DHT22;50104;52.002;4.688;2023-04-15T14:50:14;21.30;56.60
47546;DHT22;50104;52.002;4.688;2023-04-15T14:55:15;21.30;56.50
47546;DHT22;50104;52.002;4.688;2023-04-15T15:00:16;21.30;56.60
47546;DHT22;50104;52.002;4.688;2023-04-15T15:05:17;21.20;56.50
47546;DHT22;50104;52.002;4.688;2023-04-15T15:10:18;21.20;56.70
47546;DHT22;50104;52.002;4.688;2023-04-15T15:15:19;21.20;57.00
47546;DHT22;50104;52.002;4.688;2023-04-15T15:20:20;21.10;56.80
47546;DHT22;50104;52.002;4.688;2023-04-15T15:25:21;21.10;56.70
47546;DHT22;50104;52.002;4.688;2023-04-15T15:30:22;21.00;57.30
47546;DHT22;50104;52.002;4.688;2023-04-15T15:35:24;21.00;57.50
47546;DHT22;50104;52.002;4.688;2023-04-15T15:40:25;20.90;57.60
47546;DHT22;50104;52.002;4.688;2023-04-15T15:45:26;20.80;57.10
47546;DHT22;50104;52.002;4.688;2023-04-15T15:50:27;20.80;57.40
47546;DHT22;50104;52.002;4.688;2023-04-15T15:55:28;20.80;57.60
47546;DHT22;50104;52.002;4.688;2023-04-15T16:00:28;20.70;57.70
47546;DHT22;50104;52.002;4.688;2023-04-15T16:05:29;20.70;58.00
47546;DHT22;50104;52.002;4.688;2023-04-15T16:10:30;20.70;58.10
47546;DHT22;50104;52.002;4.688;2023-04-15T16:15:31;20.60;58.80
47546;DHT22;50104;52.002;4.688;2023-04-15T16:20:32;20.60;59.20
47546;DHT22;50104;52.002;4.688;2023-04-15T16:25:33;20.40;56.90
47546;DHT22;50104;52.002;4.688;2023-04-15T16:30:36;20.20;56.30
47546;DHT22;50104;52.002;4.688;2023-04-15T16:35:37;19.90;55.60
47546;DHT22;50104;52.002;4.688;2023-04-15T16:40:38;19.70;55.50
47546;DHT22;50104;52.002;4.688;2023-04-15T16:45:39;19.40;56.30
47546;DHT22;50104;52.002;4.688;2023-04-15T16:50:40;19.10;56.80
47546;DHT22;50104;52.002;4.688;2023-04-15T16:55:40;18.80;57.00
47546;DHT22;50104;52.002;4.688;2023-04-15T17:00:41;18.50;57.30
47546;DHT22;50104;52.002;4.688;2023-04-15T17:05:42;18.20;58.10
47546;DHT22;50104;52.002;4.688;2023-04-15T17:10:44;18.00;59.10
47546;DHT22;50104;52.002;4.688;2023-04-15T17:15:45;17.80;59.40
47546;DHT22;50104;52.002;4.688;2023-04-15T17:20:45;17.70;60.00
47546;DHT22;50104;52.002;4.688;2023-04-15T17:25:46;17.60;60.10
47546;DHT22;50104;52.002;4.688;2023-04-15T17:30:47;17.40;59.90
47546;DHT22;50104;52.002;4.688;2023-04-15T17:35:48;17.30;60.90
47546;DHT22;50104;52.002;4.688;2023-04-15T17:40:49;17.20;60.90
47546;DHT22;50104;52.002;4.688;2023-04-15T17:45:50;17.10;60.60
47546;DHT22;50104;52.002;4.688;2023-04-15T17:50:50;16.90;60.60
47546;DHT22;50104;52.002;4.688;2023-04-15T17:55:51;16.70;60.60
47546;DHT22;50104;52.002;4.688;2023-04-15T18:00:53;16.50;60.70
47546;DHT22;50104;52.002;4.688;2023-04-15T18:05:54;16.30;60.90
47546;DHT22;50104;52.002;4.688;2023-04-15T18:10:55;16.00;61.00
47546;DHT22;50104;52.002;4.688;2023-04-15T18:15:56;15.70;61.20
47546;DHT22;50104;52.002;4.688;2023-04-15T18:20:56;15.40;61.50
47546;DHT22;50104;52.002;4.688;2023-04-15T18:25:57;15.20;62.20
47546;DHT22;50104;52.002;4.688;2023-04-15T18:30:58;15.00;62.50
47546;DHT22;50104;52.002;4.688;2023-04-15T18:35:59;14.70;62.90
47546;DHT22;50104;52.002;4.688;2023-04-15T18:41:01;14.50;62.90
47546;DHT22;50104;52.002;4.688;2023-04-15T18:46:02;14.30;63.20
47546;DHT22;50104;52.002;4.688;2023-04-15T18:51:07;14.10;63.20
47546;DHT22;50104;52.002;4.688;2023-04-15T18:56:08;13.90;63.90
47546;DHT22;50104;52.002;4.688;2023-04-15T19:01:09;13.70;64.50
47546;DHT22;50104;52.002;4.688;2023-04-15T19:06:10;13.50;64.80
47546;DHT22;50104;52.002;4.688;2023-04-15T19:11:10;13.40;64.90
47546;DHT22;50104;52.002;4.688;2023-04-15T19:16:12;13.20;65.10
47546;DHT22;50104;52.002;4.688;2023-04-15T19:21:13;13.20;65.70
47546;DHT22;50104;52.002;4.688;2023-04-15T19:26:14;13.00;66.00
47546;DHT22;50104;52.002;4.688;2023-04-15T19:31:15;12.90;66.00
47546;DHT22;50104;52.002;4.688;2023-04-15T19:36:16;12.80;66.40
47546;DHT22;50104;52.002;4.688;2023-04-15T19:41:17;12.70;66.40
47546;DHT22;50104;52.002;4.688;2023-04-15T19:46:18;12.60;67.10
47546;DHT22;50104;52.002;4.688;2023-04-15T19:51:19;12.50;67.10
47546;DHT22;50104;52.002;4.688;2023-04-15T19:56:20;12.40;67.30
47546;DHT22;50104;52.002;4.688;2023-04-15T20:01:21;12.30;67.30
47546;DHT22;50104;52.002;4.688;2023-04-15T20:06:22;12.30;67.50
47546;DHT22;50104;52.002;4.688;2023-04-15T20:11:23;12.20;67.90
47546;DHT22;50104;52.002;4.688;2023-04-15T20:16:28;12.10;68.40
47546;DHT22;50104;52.002;4.688;2023-04-15T20:21:29;12.00;68.70
47546;DHT22;50104;52.002;4.688;2023-04-15T20:26:30;11.90;68.90
47546;DHT22;50104;52.002;4.688;2023-04-15T20:31:31;11.80;68.90
47546;DHT22;50104;52.002;4.688;2023-04-15T20:36:33;11.80;68.90
47546;DHT22;50104;52.002;4.688;2023-04-15T20:41:34;11.70;68.90
47546;DHT22;50104;52.002;4.688;2023-04-15T20:46:35;11.70;69.00
47546;DHT22;50104;52.002;4.688;2023-04-15T20:51:35;11.60;69.20
47546;DHT22;50104;52.002;4.688;2023-04-15T20:56:37;11.60;68.90
47546;DHT22;50104;52.002;4.688;2023-04-15T21:01:38;11.50;69.10
47546;DHT22;50104;52.002;4.688;2023-04-15T21:06:39;11.50;69.20
47546;DHT22;50104;52.002;4.688;2023-04-15T21:11:44;11.40;69.30
47546;DHT22;50104;52.002;4.688;2023-04-15T21:16:47;11.30;69.60
47546;DHT22;50104;52.002;4.688;2023-04-15T21:21:48;11.30;69.90
47546;DHT22;50104;52.002;4.688;2023-04-15T21:26:48;11.30;69.90
47546;DHT22;50104;52.002;4.688;2023-04-15T21:31:49;11.20;70.10
47546;DHT22;50104;52.002;4.688;2023-04-15T21:36:50;11.20;70.40
47546;DHT22;50104;52.002;4.688;2023-04-15T21:41:51;11.20;70.50
47546;DHT22;50104;52.002;4.688;2023-04-15T21:46:52;11.10;70.60
47546;DHT22;50104;52.002;4.688;2023-04-15T21:51:52;11.10;71.00
47546;DHT22;50104;52.002;4.688;2023-04-15T21:56:53;11.10;71.10
47546;DHT22;50104;52.002;4.688;2023-04-15T22:01:54;11.00;71.20
47546;DHT22;50104;52.002;4.688;2023-04-15T22:06:55;11.00;71.20
47546;DHT22;50104;52.002;4.688;2023-04-15T22:12:02;11.00;71.30
47546;DHT22;50104;52.002;4.688;2023-04-15T22:17:03;11.00;71.10
47546;DHT22;50104;52.002;4.688;2023-04-15T22:22:04;11.00;71.30
47546;DHT22;50104;52.002;4.688;2023-04-15T22:27:05;11.00;71.60
47546;DHT22;50104;52.002;4.688;2023-04-15T22:32:06;11.00;71.60
47546;DHT22;50104;52.002;4.688;2023-04-15T22:37:07;10.90;71.70
47546;DHT22;50104;52.002;4.688;2023-04-15T22:42:08;10.90;71.90
47546;DHT22;50104;52.002;4.688;2023-04-15T22:47:09;10.90;71.90
47546;DHT22;50104;52.002;4.688;2023-04-15T22:52:12;10.90;72.00
47546;DHT22;50104;52.002;4.688;2023-04-15T22:57:13;10.90;72.10
47546;DHT22;50104;52.002;4.688;2023-04-15T23:02:14;10.90;72.40
47546;DHT22;50104;52.002;4.688;2023-04-15T23:07:15;10.90;72.60
47546;DHT22;50104;52.002;4.688;2023-04-15T23:12:15;10.90;72.60
47546;DHT22;50104;52.002;4.688;2023-04-15T23:17:16;10.90;72.80
47546;DHT22;50104;52.002;4.688;2023-04-15T23:22:17;10.90;73.40
47546;DHT22;50104;52.002;4.688;2023-04-15T23:27:18;10.90;73.50
47546;DHT22;50104;52.002;4.688;2023-04-15T23:32:19;10.80;74.10
47546;DHT22;50104;52.002;4.688;2023-04-15T23:37:20;10.80;74.20
47546;DHT22;50104;52.002;4.688;2023-04-15T23:42:20;10.80;74.30
47546;DHT22;50104;52.002;4.688;2023-04-15T23:47:22;10.80;74.20
47546;DHT22;50104;52.002;4.688;2023-04-15T23:52:23;10.80;74.50
47546;DHT22;50104;52.002;4.688;2023-04-15T23:57:24;10.80;74.70
